createdAt,value
2018-09-22T00:02:19.762Z,100916.73
2018-09-22T00:04:48.158Z,100925.40
2018-09-22T00:07:16.592Z,100928.37
2018-09-22T00:09:45.002Z,100929.65
2018-09-22T00:12:13.422Z,100938.75
2018-09-22T00:14:41.810Z,100938.75
2018-09-22T00:17:10.238Z,100939.56
2018-09-22T00:19:38.638Z,100940.40
2018-09-22T00:22:07.063Z,100936.47
2018-09-22T00:24:35.483Z,100937.74
2018-09-22T00:27:03.911Z,100929.02
2018-09-22T00:29:32.309Z,100927.25
2018-09-22T00:32:00.727Z,100915.52
2018-09-22T00:34:29.138Z,100915.06
2018-09-22T00:36:57.567Z,100921.96
2018-09-22T00:39:25.962Z,100928.46
2018-09-22T00:41:54.385Z,100926.70
2018-09-22T00:44:22.786Z,100930.94
2018-09-22T00:46:51.198Z,100933.50
2018-09-22T00:49:19.590Z,100936.06
2018-09-22T00:51:48.014Z,100936.90
2018-09-22T00:54:16.402Z,100944.23
2018-09-22T00:56:44.801Z,100929.88
2018-09-22T00:59:13.229Z,100930.30
2018-09-22T01:01:41.618Z,100941.97
2018-09-22T01:04:10.043Z,100942.36
2018-09-22T01:06:38.442Z,100942.33
2018-09-22T01:09:07.527Z,100953.59
2018-09-22T01:11:36.081Z,100947.45
2018-09-22T01:14:04.498Z,100955.61
2018-09-22T01:16:32.894Z,100952.98
2018-09-22T01:19:01.314Z,100958.53
2018-09-22T01:21:29.706Z,100967.62
2018-09-22T01:23:58.117Z,100968.45
2018-09-22T01:26:26.542Z,100973.61
2018-09-22T01:28:54.953Z,100981.80
2018-09-22T01:31:23.367Z,100986.09
2018-09-22T01:33:51.797Z,100995.14
2018-09-22T01:36:20.203Z,101006.36
2018-09-22T01:38:48.628Z,101002.89
2018-09-22T01:41:17.032Z,101004.58
2018-09-22T01:43:45.467Z,101010.16
2018-09-22T01:46:13.915Z,101017.48
2018-09-22T01:48:42.354Z,101017.88
2018-09-22T01:51:10.758Z,101019.99
2018-09-22T01:53:39.178Z,101019.95
2018-09-22T01:56:07.734Z,101021.64
2018-09-22T01:58:36.338Z,101029.39
2018-09-22T02:01:04.923Z,101033.72
2018-09-22T02:03:33.342Z,101025.88
2018-09-22T02:06:01.738Z,101030.64
2018-09-22T02:08:30.157Z,101030.59
2018-09-22T02:10:58.568Z,101027.96
2018-09-22T02:13:27.167Z,101032.28
2018-09-22T02:15:55.566Z,101038.73
2018-09-22T02:18:23.985Z,101038.25
2018-09-22T02:20:52.387Z,101045.17
2018-09-22T02:23:20.819Z,101046.86
2018-09-22T02:25:49.242Z,101054.22
2018-09-22T02:28:17.654Z,101050.75
2018-09-22T02:30:46.058Z,101053.30
2018-09-22T02:33:14.486Z,101052.00
2018-09-22T02:35:42.896Z,101052.39
2018-09-22T02:38:11.332Z,101058.02
2018-09-22T02:40:39.757Z,101061.47
2018-09-22T02:43:08.191Z,101062.30
2018-09-22T02:45:36.600Z,101061.81
2018-09-22T02:48:05.031Z,101062.67
2018-09-22T02:50:33.440Z,101062.67
2018-09-22T02:53:01.884Z,101056.63
2018-09-22T02:55:30.438Z,101052.25
2018-09-22T02:57:58.884Z,101051.39
2018-09-22T03:00:27.330Z,101053.98
2018-09-22T03:02:55.738Z,101047.88
2018-09-22T03:05:24.164Z,101054.37
2018-09-22T03:07:52.743Z,101065.18
2018-09-22T03:10:21.207Z,101058.64
2018-09-22T03:12:49.655Z,101061.23
2018-09-22T03:15:18.152Z,101063.83
2018-09-22T03:17:46.546Z,101067.28
2018-09-22T03:20:14.962Z,101066.38
2018-09-22T03:22:43.379Z,101069.80
2018-09-22T03:25:11.831Z,101069.78
2018-09-22T03:27:40.236Z,101073.67
2018-09-22T03:30:08.799Z,101077.09
2018-09-22T03:32:37.144Z,101078.38
2018-09-22T03:35:05.574Z,101084.87
2018-09-22T03:37:33.984Z,101082.19
2018-09-22T03:40:02.418Z,101093.47
2018-09-22T03:42:30.855Z,101094.29
2018-09-22T03:44:59.298Z,101089.53
2018-09-22T03:47:27.713Z,101086.89
2018-09-22T03:49:56.130Z,101094.68
2018-09-22T03:52:24.536Z,101086.45
2018-09-22T03:54:52.961Z,101086.50
2018-09-22T03:57:21.397Z,101093.85
2018-09-22T03:59:49.835Z,101099.48
2018-09-22T04:02:18.299Z,101104.28
2018-09-22T04:04:46.755Z,101109.91
2018-09-22T04:07:15.222Z,101116.45
2018-09-22T04:09:43.637Z,101120.38
2018-09-22T04:12:12.049Z,101125.16
2018-09-22T04:14:40.502Z,101131.30
2018-09-22T04:17:08.918Z,101125.34
2018-09-22T04:19:37.341Z,101135.88
2018-09-22T04:22:05.748Z,101131.70
2018-09-22T04:24:34.186Z,101122.71
2018-09-22T04:27:02.582Z,101134.95
2018-09-22T04:29:31.012Z,101139.81
2018-09-22T04:31:59.551Z,101136.84
2018-09-22T04:34:28.079Z,101147.33
2018-09-22T04:36:56.479Z,101155.20
2018-09-22T04:39:24.894Z,101161.79
2018-09-22T04:41:53.306Z,101149.32
2018-09-22T04:44:21.726Z,101148.52
2018-09-22T04:46:50.126Z,101145.09
2018-09-22T04:49:18.550Z,101147.73
2018-09-22T04:51:46.943Z,101149.94
2018-09-22T04:54:15.377Z,101154.66
2018-09-22T04:56:43.774Z,101160.33
2018-09-22T04:59:12.255Z,101162.93
2018-09-22T05:01:40.691Z,101174.23
2018-09-22T05:04:09.087Z,101177.34
2018-09-22T05:06:37.498Z,101183.06
2018-09-22T05:09:08.811Z,101185.28
2018-09-22T05:11:37.234Z,101192.30
2018-09-22T05:14:05.734Z,101193.69
2018-09-22T05:16:34.173Z,101200.23
2018-09-22T05:19:02.574Z,101205.51
2018-09-22T05:21:30.986Z,101210.36
2018-09-22T05:23:59.386Z,101214.73
2018-09-22T05:26:27.846Z,101210.52
2018-09-22T05:28:56.251Z,101206.66
2018-09-22T05:31:24.686Z,101204.11
2018-09-22T05:33:53.227Z,101210.64
2018-09-22T05:36:21.926Z,101202.45
2018-09-22T05:38:50.417Z,101207.66
2018-09-22T05:41:18.843Z,101209.81
2018-09-22T05:43:47.450Z,101215.45
2018-09-22T05:46:15.874Z,101221.99
2018-09-22T05:48:44.287Z,101221.56
2018-09-22T05:51:12.794Z,101224.20
2018-09-22T05:53:41.239Z,101222.55
2018-09-22T05:56:09.670Z,101224.33
2018-09-22T05:58:38.070Z,101233.51
2018-09-22T06:01:06.590Z,101228.34
2018-09-22T06:03:34.999Z,101225.75
2018-09-22T06:06:03.446Z,101237.53
2018-09-22T06:08:31.850Z,101235.88
2018-09-22T06:11:00.275Z,101241.55
2018-09-22T06:13:28.674Z,101234.66
2018-09-22T06:15:57.101Z,101248.17
2018-09-22T06:18:25.502Z,101249.08
2018-09-22T06:20:54.718Z,101251.75
2018-09-22T06:23:23.136Z,101258.77
2018-09-22T06:25:51.552Z,101261.41
2018-09-22T06:28:19.930Z,101269.77
2018-09-22T06:30:48.318Z,101260.30
2018-09-22T06:33:16.692Z,101272.52
2018-09-22T06:35:45.082Z,101273.45
2018-09-22T06:38:15.136Z,101282.17
2018-09-22T06:40:43.661Z,101284.41
2018-09-22T06:43:12.322Z,101286.18
2018-09-22T06:45:41.047Z,101284.08
2018-09-22T06:48:09.942Z,101282.81
2018-09-22T06:50:39.061Z,101284.18
2018-09-22T06:53:07.485Z,101285.11
2018-09-22T06:55:35.911Z,101285.61
2018-09-22T06:58:04.307Z,101286.98
2018-09-22T07:00:32.683Z,101298.73
2018-09-22T07:03:01.083Z,101301.01
2018-09-22T07:05:30.938Z,101308.48
2018-09-22T07:07:59.446Z,101312.89
2018-09-22T07:10:27.858Z,101311.22
2018-09-22T07:12:56.251Z,101317.77
2018-09-22T07:15:24.702Z,101325.23
2018-09-22T07:17:53.099Z,101328.34
2018-09-22T07:20:21.462Z,101326.66
2018-09-22T07:22:55.172Z,101339.35
2018-09-22T07:25:23.628Z,101345.03
2018-09-22T07:27:51.991Z,101350.30
2018-09-22T07:30:20.364Z,101354.70
2018-09-22T07:32:49.542Z,101356.94
2018-09-22T07:35:17.917Z,101356.96
2018-09-22T07:37:46.320Z,101361.36
2018-09-22T07:40:14.698Z,101366.14
2018-09-22T07:42:43.093Z,101366.20
2018-09-22T07:45:11.466Z,101367.94
2018-09-22T07:47:39.859Z,101364.02
2018-09-22T07:50:08.227Z,101379.23
2018-09-22T07:52:36.627Z,101376.23
2018-09-22T07:55:05.007Z,101374.48
2018-09-22T07:57:33.407Z,101375.79
2018-09-22T08:00:01.778Z,101376.66
2018-09-22T08:02:30.174Z,101385.44
2018-09-22T08:04:58.543Z,101389.84
2018-09-22T08:07:26.936Z,101387.74
2018-09-22T08:09:55.303Z,101391.73
2018-09-22T08:12:23.694Z,101386.58
2018-09-22T08:14:52.073Z,101383.64
2018-09-22T08:17:20.462Z,101388.45
2018-09-22T08:19:48.829Z,101401.62
2018-09-22T08:22:17.223Z,101402.97
2018-09-22T08:24:45.613Z,101403.03
2018-09-22T08:27:14.012Z,101401.38
2018-09-22T08:29:42.379Z,101400.59
2018-09-22T08:32:10.830Z,101402.35
2018-09-22T08:34:39.194Z,101406.31
2018-09-22T08:37:07.730Z,101405.45
2018-09-22T08:39:36.179Z,101416.82
2018-09-22T08:42:04.578Z,101421.20
2018-09-22T08:44:32.942Z,101415.16
2018-09-22T08:47:01.350Z,101416.48
2018-09-22T08:49:31.400Z,101410.84
2018-09-22T08:51:59.790Z,101419.61
2018-09-22T08:54:28.179Z,101417.92
2018-09-22T08:56:56.587Z,101409.69
2018-09-22T08:59:24.958Z,101421.50
2018-09-22T09:01:53.338Z,101412.83
2018-09-22T09:04:21.749Z,101403.73
2018-09-22T09:06:50.126Z,101406.37
2018-09-22T09:09:18.547Z,101407.70
2018-09-22T09:11:46.939Z,101405.56
2018-09-22T09:14:15.331Z,101415.22
2018-09-22T09:16:43.706Z,101416.97
2018-09-22T09:19:12.108Z,101413.50
2018-09-22T09:21:40.479Z,101412.63
2018-09-22T09:24:08.870Z,101417.01
2018-09-22T09:26:37.260Z,101414.81
2018-09-22T09:29:05.654Z,101420.94
2018-09-22T09:31:34.031Z,101417.88
2018-09-22T09:34:02.426Z,101414.83
2018-09-22T09:36:30.794Z,101414.40
2018-09-22T09:39:01.518Z,101414.40
2018-09-22T09:41:29.998Z,101415.69
2018-09-22T09:43:58.398Z,101420.50
2018-09-22T09:46:26.810Z,101415.27
2018-09-22T09:48:55.250Z,101424.01
2018-09-22T09:51:23.626Z,101417.00
2018-09-22T09:53:52.014Z,101420.07
2018-09-22T09:56:20.573Z,101413.52
2018-09-22T09:58:48.966Z,101418.32
2018-09-22T10:01:17.334Z,101420.95
2018-09-22T10:03:45.727Z,101411.34
2018-09-22T10:06:14.191Z,101410.89
2018-09-22T10:08:42.587Z,101417.44
2018-09-22T10:11:11.027Z,101410.90
2018-09-22T10:13:39.486Z,101412.66
2018-09-22T10:16:07.902Z,101411.34
2018-09-22T10:18:36.411Z,101410.05
2018-09-22T10:21:04.797Z,101415.73
2018-09-22T10:23:33.190Z,101412.22
2018-09-22T10:26:01.714Z,101412.22
2018-09-22T10:28:30.199Z,101413.08
2018-09-22T10:30:58.556Z,101413.52
2018-09-22T10:33:27.005Z,101403.86
2018-09-22T10:35:55.391Z,101408.66
2018-09-22T10:38:23.954Z,101411.27
2018-09-22T10:40:52.327Z,101407.78
2018-09-22T10:43:20.784Z,101401.19
2018-09-22T10:45:49.166Z,101392.44
2018-09-22T10:48:17.595Z,101398.52
2018-09-22T10:50:46.003Z,101394.98
2018-09-22T10:53:14.572Z,101397.61
2018-09-22T10:55:43.057Z,101405.43
2018-09-22T10:58:11.785Z,101403.19
2018-09-22T11:00:40.162Z,101392.66
2018-09-22T11:03:08.659Z,101394.39
2018-09-22T11:05:37.083Z,101398.76
2018-09-22T11:08:05.566Z,101396.97
2018-09-22T11:10:34.003Z,101397.45
2018-09-22T11:13:02.406Z,101397.86
2018-09-22T11:15:30.827Z,101393.03
2018-09-22T11:17:59.212Z,101392.64
2018-09-22T11:20:27.610Z,101383.45
2018-09-22T11:22:56.005Z,101381.30
2018-09-22T11:25:24.423Z,101382.61
2018-09-22T11:27:52.794Z,101383.48
2018-09-22T11:30:21.196Z,101390.03
2018-09-22T11:32:49.576Z,101383.95
2018-09-22T11:35:19.250Z,101380.89
2018-09-22T11:37:47.910Z,101380.97
2018-09-22T11:40:16.476Z,101384.03
2018-09-22T11:42:44.983Z,101377.09
2018-09-22T11:45:13.604Z,101374.05
2018-09-22T11:47:41.975Z,101372.31
2018-09-22T11:50:10.495Z,101374.92
2018-09-22T11:52:39.014Z,101373.99
2018-09-22T11:55:07.513Z,101375.73
2018-09-22T11:57:35.911Z,101376.06
2018-09-22T12:00:04.381Z,101369.41
2018-09-22T12:02:32.774Z,101368.43
2018-09-22T12:05:01.970Z,101363.95
2018-09-22T12:07:30.337Z,101375.23
2018-09-22T12:09:58.772Z,101377.38
2018-09-22T12:12:27.161Z,101373.44
2018-09-22T12:14:55.613Z,101366.83
2018-09-22T12:17:24.106Z,101368.15
2018-09-22T12:19:52.550Z,101358.08
2018-09-22T12:22:20.925Z,101354.59
2018-09-22T12:24:49.391Z,101362.13
2018-09-22T12:27:17.770Z,101353.83
2018-09-22T12:29:46.167Z,101352.09
2018-09-22T12:32:14.580Z,101348.61
2018-09-22T12:34:42.984Z,101342.91
2018-09-22T12:37:11.392Z,101340.20
2018-09-22T12:39:39.794Z,101336.27
2018-09-22T12:42:08.167Z,101343.25
2018-09-22T12:44:36.634Z,101348.92
2018-09-22T12:47:05.010Z,101340.10
2018-09-22T12:49:33.459Z,101339.66
2018-09-22T12:52:01.826Z,101336.61
2018-09-22T12:54:30.227Z,101347.12
2018-09-22T12:56:58.644Z,101345.87
2018-09-22T12:59:27.098Z,101343.31
2018-09-22T13:01:55.473Z,101343.35
2018-09-22T13:04:23.854Z,101343.80
2018-09-22T13:06:52.247Z,101338.52
2018-09-22T13:09:20.622Z,101332.77
2018-09-22T13:11:49.013Z,101335.36
2018-09-22T13:14:17.399Z,101329.17
2018-09-22T13:16:45.803Z,101336.12
2018-09-22T13:19:14.178Z,101337.84
2018-09-22T13:21:42.577Z,101328.11
2018-09-22T13:24:10.963Z,101331.56
2018-09-22T13:26:39.385Z,101333.30
2018-09-22T13:29:07.760Z,101332.39
2018-09-22T13:31:36.182Z,101323.63
2018-09-22T13:34:04.709Z,101323.63
2018-09-22T13:36:33.137Z,101318.37
2018-09-22T13:39:01.532Z,101318.83
2018-09-22T13:41:29.927Z,101323.22
2018-09-22T13:43:58.301Z,101317.02
2018-09-22T13:46:26.699Z,101325.72
2018-09-22T13:48:55.067Z,101323.09
2018-09-22T13:51:23.466Z,101327.86
2018-09-22T13:53:51.844Z,101323.50
2018-09-22T13:56:20.280Z,101317.80
2018-09-22T13:58:48.636Z,101325.23
2018-09-22T14:01:17.031Z,101334.93
2018-09-22T14:03:45.423Z,101325.36
2018-09-22T14:06:13.839Z,101336.78
2018-09-22T14:08:42.202Z,101335.13
2018-09-22T14:11:10.604Z,101336.53
2018-09-22T14:13:39.094Z,101335.22
2018-09-22T14:16:07.507Z,101347.08
2018-09-22T14:18:36.088Z,101327.38
2018-09-22T14:21:04.474Z,101334.39
2018-09-22T14:23:32.841Z,101330.86
2018-09-22T14:26:01.266Z,101339.23
2018-09-22T14:28:29.662Z,101326.55
2018-09-22T14:30:58.054Z,101330.48
2018-09-22T14:33:26.429Z,101332.25
2018-09-22T14:35:54.830Z,101333.56
2018-09-22T14:38:23.745Z,101326.09
2018-09-22T14:40:52.147Z,101336.61
2018-09-22T14:43:20.527Z,101340.14
2018-09-22T14:45:49.143Z,101336.67
2018-09-22T14:48:17.542Z,101330.14
2018-09-22T14:50:45.934Z,101335.47
2018-09-22T14:53:14.311Z,101333.33
2018-09-22T14:55:42.719Z,101334.70
2018-09-22T14:58:11.104Z,101325.16
2018-09-22T15:00:39.522Z,101331.33
2018-09-22T15:03:07.902Z,101324.38
2018-09-22T15:05:36.266Z,101329.20
2018-09-22T15:08:04.685Z,101325.73
2018-09-22T15:10:33.063Z,101329.28
2018-09-22T15:13:01.467Z,101333.23
2018-09-22T15:15:29.850Z,101342.03
2018-09-22T15:17:58.255Z,101370.05
2018-09-22T15:20:26.669Z,101381.48
2018-09-22T15:22:55.070Z,101382.43
2018-09-22T15:25:23.478Z,101373.75
2018-09-22T15:27:51.886Z,101393.02
2018-09-22T15:30:20.275Z,101393.43
2018-09-22T15:32:48.676Z,101405.59
2018-09-22T15:35:17.085Z,101397.65
2018-09-22T15:37:45.475Z,101393.15
2018-09-22T15:40:13.859Z,101397.44
2018-09-22T15:42:42.258Z,101399.52
2018-09-22T15:45:10.625Z,101415.98
2018-09-22T15:47:39.025Z,101428.09
2018-09-22T15:50:07.402Z,101427.58
2018-09-22T15:52:35.850Z,101421.41
2018-09-22T15:55:04.222Z,101419.18
2018-09-22T15:57:32.629Z,101416.94
2018-09-22T16:00:01.139Z,101411.62
2018-09-22T16:02:29.543Z,101404.56
2018-09-22T16:04:57.918Z,101395.77
2018-09-22T16:07:26.523Z,101390.88
2018-09-22T16:09:54.899Z,101385.19
2018-09-22T16:12:23.300Z,101386.44
2018-09-22T16:14:51.670Z,101383.34
2018-09-22T16:17:20.079Z,101374.62
2018-09-22T16:19:48.462Z,101368.04
2018-09-22T16:22:16.863Z,101363.23
2018-09-22T16:24:45.263Z,101365.36
2018-09-22T16:27:13.659Z,101363.56
2018-09-22T16:29:42.051Z,101365.67
2018-09-22T16:32:10.460Z,101363.48
2018-09-22T16:34:39.083Z,101361.72
2018-09-22T16:37:07.587Z,101359.11
2018-09-22T16:39:35.966Z,101354.76
2018-09-22T16:42:04.376Z,101359.52
2018-09-22T16:44:32.774Z,101361.69
2018-09-22T16:47:01.178Z,101364.27
2018-09-22T16:49:29.604Z,101369.48
2018-09-22T16:51:57.981Z,101368.20
2018-09-22T16:54:26.355Z,101369.52
2018-09-22T16:56:54.759Z,101369.08
2018-09-22T16:59:23.161Z,101366.91
2018-09-22T17:01:51.551Z,101369.48
2018-09-22T17:04:19.924Z,101365.97
2018-09-22T17:06:48.429Z,101367.28
2018-09-22T17:09:16.834Z,101365.98
2018-09-22T17:11:45.207Z,101365.54
2018-09-22T17:14:13.606Z,101361.19
2018-09-22T17:16:41.975Z,101363.80
2018-09-22T17:19:10.384Z,101358.52
2018-09-22T17:21:38.754Z,101359.39
2018-09-22T17:24:07.168Z,101359.34
2018-09-22T17:26:35.556Z,101371.04
2018-09-22T17:29:03.980Z,101364.45
2018-09-22T17:31:32.382Z,101356.61
2018-09-22T17:34:00.765Z,101352.23
2018-09-22T17:36:29.147Z,101347.42
2018-09-22T17:38:57.546Z,101346.99
2018-09-22T17:41:25.950Z,101355.21
2018-09-22T17:43:54.374Z,101346.95
2018-09-22T17:46:22.784Z,101356.08
2018-09-22T17:48:51.199Z,101359.55
2018-09-22T17:51:19.610Z,101364.80
2018-09-22T17:53:48.020Z,101365.67
2018-09-22T17:56:16.404Z,101370.88
2018-09-22T17:58:44.801Z,101379.61
2018-09-22T18:01:13.187Z,101382.21
2018-09-22T18:03:41.678Z,101377.44
2018-09-22T18:06:10.133Z,101386.16
2018-09-22T18:08:38.507Z,101389.19
2018-09-22T18:11:07.053Z,101400.95
2018-09-22T18:13:35.614Z,101410.12
2018-09-22T18:16:05.596Z,101423.59
2018-09-22T18:18:34.264Z,101427.93
2018-09-22T18:21:02.773Z,101419.20
2018-09-22T18:23:31.182Z,101413.02
2018-09-22T18:25:59.639Z,101416.40
2018-09-22T18:28:28.039Z,101405.40
2018-09-22T18:30:56.414Z,101396.61
2018-09-22T18:33:24.817Z,101388.18
2018-09-22T18:35:53.198Z,101388.51
2018-09-22T18:38:21.599Z,101382.75
2018-09-22T18:40:49.996Z,101379.64
2018-09-22T18:43:18.390Z,101381.73
2018-09-22T18:45:46.768Z,101378.19
2018-09-22T18:48:15.165Z,101376.80
2018-09-22T18:50:43.533Z,101377.23
2018-09-22T18:53:11.940Z,101368.05
2018-09-22T18:55:40.314Z,101374.95
2018-09-22T18:58:08.762Z,101374.08
2018-09-22T19:00:37.143Z,101379.69
2018-09-22T19:03:05.566Z,101382.68
2018-09-22T19:05:33.974Z,101375.30
2018-09-22T19:08:02.351Z,101381.38
2018-09-22T19:10:30.745Z,101379.20
2018-09-22T19:12:59.774Z,101373.09
2018-09-22T19:15:32.379Z,101378.73
2018-09-22T19:18:07.202Z,101377.86
2018-09-22T19:20:42.156Z,101375.69
2018-09-22T19:23:14.187Z,101371.79
2018-09-22T19:25:45.974Z,101368.32
2018-09-22T19:28:17.802Z,101374.39
2018-09-22T19:30:49.392Z,101383.55
2018-09-22T19:33:25.128Z,101381.80
2018-09-22T19:36:12.659Z,101390.05
2018-09-22T19:38:46.482Z,101380.08
2018-09-22T19:41:20.306Z,101381.84
2018-09-22T19:43:58.983Z,101383.11
2018-09-22T19:46:31.570Z,101376.59
2018-09-22T19:49:09.715Z,101378.30
2018-09-22T19:51:45.747Z,101371.80
2018-09-22T19:54:14.127Z,101379.20
2018-09-22T19:56:42.530Z,101381.77
2018-09-22T19:59:10.919Z,101391.75
2018-09-22T20:01:39.385Z,101390.88
2018-09-22T20:04:08.492Z,101387.41
2018-09-22T20:06:36.915Z,101383.03
2018-09-22T20:09:06.466Z,101386.93
2018-09-22T20:11:34.926Z,101388.63
2018-09-22T20:14:03.292Z,101388.59
2018-09-22T20:16:35.564Z,101385.07
2018-09-22T20:19:08.250Z,101377.70
2018-09-22T20:21:36.676Z,101373.75
2018-09-22T20:24:05.235Z,101370.67
2018-09-22T20:26:33.523Z,101356.83
2018-09-22T20:29:02.062Z,101356.31
2018-09-22T20:31:30.553Z,101361.88
2018-09-22T20:33:59.923Z,101363.13
2018-09-22T20:36:28.350Z,101363.09
2018-09-22T20:38:56.719Z,101358.70
2018-09-22T20:41:25.117Z,101363.04
2018-09-22T20:43:53.489Z,101365.16
2018-09-22T20:46:21.895Z,101360.39
2018-09-22T20:48:50.299Z,101354.29
2018-09-22T20:51:18.699Z,101356.45
2018-09-22T20:53:47.106Z,101359.88
2018-09-22T20:56:15.508Z,101362.48
2018-09-22T20:58:43.875Z,101368.94
2018-09-22T21:01:12.267Z,101365.46
2018-09-22T21:03:40.660Z,101359.36
2018-09-22T21:06:09.099Z,101360.66
2018-09-22T21:08:37.986Z,101367.59
2018-09-22T21:11:06.379Z,101369.76
2018-09-22T21:13:34.974Z,101369.76
2018-09-22T21:16:03.401Z,101364.55
2018-09-22T21:18:32.114Z,101372.36
2018-09-22T21:21:00.563Z,101371.48
2018-09-22T21:23:28.927Z,101375.39
2018-09-22T21:25:58.876Z,101366.69
2018-09-22T21:28:27.333Z,101357.58
2018-09-22T21:30:55.868Z,101364.98
2018-09-22T21:33:24.238Z,101366.69
2018-09-22T21:35:52.847Z,101369.28
2018-09-22T21:38:21.222Z,101365.81
2018-09-22T21:40:49.623Z,101363.22
2018-09-22T21:43:18.260Z,101367.12
2018-09-22T21:45:46.663Z,101368.84
2018-09-22T21:48:15.837Z,101369.72
2018-09-22T21:50:44.253Z,101370.19
2018-09-22T21:53:12.639Z,101368.89
2018-09-22T21:55:41.024Z,101365.86
2018-09-22T21:58:09.422Z,101367.59
2018-09-22T22:00:38.155Z,101369.76
2018-09-22T22:03:06.554Z,101364.08
2018-09-22T22:05:34.926Z,101366.20
2018-09-22T22:08:03.350Z,101367.03
2018-09-22T22:10:31.738Z,101373.09
2018-09-22T22:13:00.136Z,101372.22
2018-09-22T22:15:28.510Z,101366.11
2018-09-22T22:17:56.898Z,101363.03
2018-09-22T22:20:25.275Z,101363.03
2018-09-22T22:22:53.673Z,101361.25
2018-09-22T22:25:22.066Z,101357.78
2018-09-22T22:27:50.583Z,101358.61
2018-09-22T22:30:18.977Z,101349.03
2018-09-22T22:32:47.430Z,101347.72
2018-09-22T22:35:15.913Z,101348.55
2018-09-22T22:37:44.263Z,101338.58
2018-09-22T22:40:12.631Z,101342.91
2018-09-22T22:42:41.027Z,101341.61
2018-09-22T22:45:09.398Z,101345.55
2018-09-22T22:47:37.786Z,101343.81
2018-09-22T22:50:06.438Z,101345.98
2018-09-22T22:52:34.842Z,101337.33
2018-09-22T22:55:03.218Z,101342.52
2018-09-22T22:57:31.611Z,101339.91
2018-09-22T22:59:59.986Z,101340.31
2018-09-22T23:02:28.463Z,101341.61
2018-09-22T23:04:56.851Z,101347.67
2018-09-22T23:07:25.243Z,101349.80
2018-09-22T23:09:53.662Z,101345.85
2018-09-22T23:12:22.050Z,101351.05
2018-09-22T23:14:50.422Z,101350.58
2018-09-22T23:17:18.826Z,101350.96
2018-09-22T23:19:47.194Z,101362.27
2018-09-22T23:22:15.595Z,101356.16
2018-09-22T23:24:43.991Z,101354.38
2018-09-22T23:27:12.391Z,101364.78
2018-09-22T23:29:40.763Z,101356.50
2018-09-22T23:32:09.155Z,101354.69
2018-09-22T23:34:37.536Z,101352.50
2018-09-22T23:37:06.119Z,101351.12
2018-09-22T23:39:34.495Z,101351.06
2018-09-22T23:42:02.895Z,101343.65
2018-09-22T23:44:31.324Z,101340.14
2018-09-22T23:46:59.697Z,101340.91
2018-09-22T23:49:28.082Z,101338.26
2018-09-22T23:51:56.454Z,101336.43
2018-09-22T23:54:24.863Z,101336.80
2018-09-22T23:56:53.243Z,101330.27
2018-09-22T23:59:21.647Z,101336.70
